createdAt,value
2023-03-05T00:02:38.593Z,2.63
2023-03-05T00:05:28.500Z,2.66
2023-03-05T00:08:18.382Z,2.65
2023-03-05T00:11:09.069Z,2.65
2023-03-05T00:13:58.354Z,2.61
2023-03-05T00:16:47.913Z,2.68
2023-03-05T00:19:36.502Z,2.59
2023-03-05T00:22:27.436Z,2.58
2023-03-05T00:25:16.104Z,2.54
2023-03-05T00:28:06.595Z,2.59
2023-03-05T00:30:55.211Z,2.56
2023-03-05T00:33:44.296Z,2.50
2023-03-05T00:36:33.903Z,2.47
2023-03-05T00:39:23.825Z,2.55
2023-03-05T00:42:13.331Z,2.60
2023-03-05T00:45:03.302Z,2.63
2023-03-05T00:47:51.834Z,2.63
2023-03-05T00:50:41.148Z,2.63
2023-03-05T00:53:29.696Z,2.57
2023-03-05T00:56:20.615Z,2.56
2023-03-05T00:59:09.245Z,2.46
2023-03-05T01:01:58.882Z,2.46
2023-03-05T01:04:47.558Z,2.42
2023-03-05T01:07:37.589Z,2.32
2023-03-05T01:10:28.022Z,2.30
2023-03-05T01:13:17.895Z,2.33
2023-03-05T01:16:07.603Z,2.35
2023-03-05T01:18:56.132Z,2.32
2023-03-05T01:21:45.536Z,2.23
2023-03-05T01:24:34.251Z,2.23
2023-03-05T01:27:23.575Z,2.26
2023-03-05T01:30:16.565Z,2.21
2023-03-05T01:33:05.550Z,2.19
2023-03-05T01:35:54.156Z,2.13
2023-03-05T01:38:44.691Z,2.27
2023-03-05T01:41:34.412Z,2.25
2023-03-05T01:44:25.179Z,2.26
2023-03-05T01:47:16.875Z,2.30
2023-03-05T01:50:07.173Z,2.26
2023-03-05T01:53:02.946Z,2.20
2023-03-05T01:55:51.569Z,2.23
2023-03-05T01:58:41.416Z,2.22
2023-03-05T02:01:33.349Z,2.20
2023-03-05T02:04:31.233Z,2.15
2023-03-05T02:07:20.910Z,2.22
2023-03-05T02:10:18.622Z,2.19
2023-03-05T02:13:10.704Z,2.23
2023-03-05T02:16:01.739Z,2.21
2023-03-05T02:18:50.404Z,2.30
2023-03-05T02:21:43.647Z,2.25
2023-03-05T02:24:37.846Z,2.25
2023-03-05T02:27:35.432Z,2.28
2023-03-05T02:30:24.711Z,2.22
2023-03-05T02:33:16.344Z,2.35
2023-03-05T02:36:06.534Z,2.39
2023-03-05T02:38:59.115Z,2.42
2023-03-05T02:41:48.851Z,2.35
2023-03-05T02:44:37.527Z,2.35
2023-03-05T02:47:27.152Z,2.36
2023-03-05T02:50:16.032Z,2.32
2023-03-05T02:53:05.667Z,2.32
2023-03-05T02:55:56.306Z,2.32
2023-03-05T02:58:45.540Z,2.32
2023-03-05T03:01:34.339Z,2.29
2023-03-05T03:04:23.937Z,2.30
2023-03-05T03:07:12.639Z,2.33
2023-03-05T03:10:02.052Z,2.30
2023-03-05T03:12:52.275Z,2.23
2023-03-05T03:15:42.602Z,2.25
2023-03-05T03:18:31.681Z,2.22
2023-03-05T03:21:24.251Z,2.21
2023-03-05T03:24:12.911Z,2.22
2023-03-05T03:27:02.002Z,2.27
2023-03-05T03:29:52.860Z,2.26
2023-03-05T03:32:42.746Z,2.28
2023-03-05T03:35:32.179Z,2.34
2023-03-05T03:38:22.063Z,2.35
2023-03-05T03:41:11.274Z,2.36
2023-03-05T03:44:00.611Z,2.36
2023-03-05T03:46:52.274Z,2.35
2023-03-05T03:49:41.553Z,2.36
2023-03-05T03:52:30.228Z,2.35
2023-03-05T03:55:20.443Z,2.34
2023-03-05T03:58:09.850Z,2.38
2023-03-05T04:00:58.912Z,2.35
2023-03-05T04:03:50.227Z,2.29
2023-03-05T04:06:39.308Z,2.32
2023-03-05T04:09:27.978Z,2.34
2023-03-05T04:12:19.469Z,2.34
2023-03-05T04:15:09.470Z,2.35
2023-03-05T04:17:58.895Z,2.35
2023-03-05T04:20:49.282Z,2.38
2023-03-05T04:23:38.245Z,2.38
2023-03-05T04:26:28.495Z,2.37
2023-03-05T04:29:17.154Z,2.36
2023-03-05T04:32:07.117Z,2.37
2023-03-05T04:34:55.764Z,2.06
2023-03-05T04:37:47.559Z,2.32
2023-03-05T04:40:36.873Z,2.41
2023-03-05T04:43:26.043Z,2.42
2023-03-05T04:46:15.175Z,2.41
2023-03-05T04:49:04.008Z,2.43
2023-03-05T04:51:53.731Z,2.40
2023-03-05T04:54:45.702Z,2.41
2023-03-05T04:57:35.144Z,2.43
2023-03-05T05:00:23.868Z,2.45
2023-03-05T05:03:14.089Z,2.47
2023-03-05T05:06:03.061Z,2.39
2023-03-05T05:08:52.622Z,2.38
2023-03-05T05:11:43.130Z,2.41
2023-03-05T05:14:31.797Z,2.40
2023-03-05T05:17:21.380Z,2.37
2023-03-05T05:20:13.015Z,2.40
2023-03-05T05:23:03.179Z,2.43
2023-03-05T05:25:58.049Z,2.42
2023-03-05T05:28:49.444Z,2.46
2023-03-05T05:31:38.461Z,2.43
2023-03-05T05:34:27.365Z,2.38
2023-03-05T05:37:16.088Z,2.43
2023-03-05T05:40:07.015Z,2.37
2023-03-05T05:42:56.053Z,2.50
2023-03-05T05:45:46.634Z,2.47
2023-03-05T05:48:37.289Z,2.55
2023-03-05T05:51:26.656Z,2.58
2023-03-05T05:54:15.983Z,2.59
2023-03-05T05:57:05.272Z,2.54
2023-03-05T05:59:53.912Z,2.63
2023-03-05T06:02:45.028Z,2.62
2023-03-05T06:05:33.661Z,2.65
2023-03-05T06:08:23.322Z,2.65
2023-03-05T06:11:12.278Z,2.66
2023-03-05T06:14:03.180Z,2.65
2023-03-05T06:16:52.296Z,2.69
2023-03-05T06:19:42.750Z,2.69
2023-03-05T06:22:31.528Z,2.65
2023-03-05T06:25:24.646Z,2.64
2023-03-05T06:28:17.189Z,2.58
2023-03-05T06:31:13.016Z,2.61
2023-03-05T06:34:03.231Z,2.69
2023-03-05T06:36:55.872Z,2.67
2023-03-05T06:39:44.760Z,2.73
2023-03-05T06:42:35.294Z,2.72
2023-03-05T06:45:24.026Z,2.76
2023-03-05T06:48:14.162Z,2.76
2023-03-05T06:51:05.159Z,2.76
2023-03-05T06:53:56.675Z,2.78
2023-03-05T06:56:47.427Z,2.75
2023-03-05T06:59:36.511Z,2.81
2023-03-05T07:02:25.697Z,2.82
2023-03-05T07:05:14.621Z,2.83
2023-03-05T07:08:04.621Z,2.86
2023-03-05T07:10:55.217Z,2.91
2023-03-05T07:13:44.460Z,2.93
2023-03-05T07:16:35.229Z,2.97
2023-03-05T07:19:24.036Z,3.00
2023-03-05T07:22:12.668Z,3.04
2023-03-05T07:25:02.210Z,3.08
2023-03-05T07:27:52.622Z,3.15
2023-03-05T07:30:41.368Z,3.13
2023-03-05T07:33:30.203Z,3.12
2023-03-05T07:36:19.130Z,3.18
2023-03-05T07:39:07.948Z,3.20
2023-03-05T07:41:57.462Z,3.30
2023-03-05T07:44:53.091Z,3.33
2023-03-05T07:47:42.471Z,3.39
2023-03-05T07:50:32.992Z,3.40
2023-03-05T07:53:22.268Z,3.41
2023-03-05T07:56:11.249Z,3.45
2023-03-05T07:59:01.800Z,3.47
2023-03-05T08:01:51.809Z,3.39
2023-03-05T08:04:42.233Z,3.39
2023-03-05T08:07:31.374Z,3.38
2023-03-05T08:10:20.280Z,3.41
2023-03-05T08:13:09.582Z,3.34
2023-03-05T08:15:58.359Z,3.50
2023-03-05T08:18:49.109Z,3.50
2023-03-05T08:21:38.388Z,3.53
2023-03-05T08:24:29.699Z,3.41
2023-03-05T08:27:20.030Z,3.43
2023-03-05T08:30:12.378Z,3.43
2023-03-05T08:33:00.998Z,3.41
2023-03-05T08:35:51.467Z,3.44
2023-03-05T08:38:40.732Z,3.44
2023-03-05T08:41:29.563Z,3.45
2023-03-05T08:44:19.375Z,3.34
2023-03-05T08:47:08.180Z,3.43
2023-03-05T08:49:58.790Z,3.49
2023-03-05T08:52:49.162Z,3.47
2023-03-05T08:55:38.515Z,3.50
2023-03-05T08:58:27.838Z,3.47
2023-03-05T09:01:17.382Z,3.49
2023-03-05T09:04:06.101Z,3.45
2023-03-05T09:06:54.735Z,3.45
2023-03-05T09:09:44.818Z,3.44
2023-03-05T09:12:33.821Z,3.54
2023-03-05T09:15:22.992Z,3.54
2023-03-05T09:18:11.712Z,3.49
2023-03-05T09:21:05.898Z,3.49
2023-03-05T09:23:59.538Z,3.53
2023-03-05T09:26:49.731Z,3.59
2023-03-05T09:29:40.821Z,3.55
2023-03-05T09:32:31.559Z,3.53
2023-03-05T09:35:20.487Z,3.58
2023-03-05T09:38:09.144Z,3.56
2023-03-05T09:41:06.048Z,3.60
2023-03-05T09:44:06.096Z,3.63
2023-03-05T09:46:57.616Z,3.56
2023-03-05T09:49:58.027Z,3.60
2023-03-05T09:52:51.570Z,3.57
2023-03-05T09:55:44.140Z,3.65
2023-03-05T09:58:38.732Z,3.67
2023-03-05T10:01:36.533Z,3.71
2023-03-05T10:04:28.590Z,3.75
2023-03-05T10:07:22.372Z,3.85
2023-03-05T10:10:15.346Z,3.90
2023-03-05T10:13:16.454Z,3.93
2023-03-05T10:16:18.836Z,3.88
2023-03-05T10:19:16.021Z,4.04
2023-03-05T10:22:15.617Z,4.10
2023-03-05T10:25:16.481Z,4.15
2023-03-05T10:28:10.646Z,4.14
2023-03-05T10:31:12.609Z,4.17
2023-03-05T10:34:31.983Z,4.19
2023-03-05T10:37:47.101Z,4.27
2023-03-05T10:40:40.274Z,4.34
2023-03-05T10:43:38.486Z,4.38
2023-03-05T10:46:33.729Z,4.49
2023-03-05T10:49:29.472Z,4.51
2023-03-05T10:52:21.094Z,4.56
2023-03-05T10:55:15.577Z,4.56
2023-03-05T10:58:12.747Z,4.59
2023-03-05T11:01:05.334Z,4.59
2023-03-05T11:03:57.822Z,4.57
2023-03-05T11:06:47.919Z,4.64
2023-03-05T11:09:37.141Z,4.61
2023-03-05T11:12:28.245Z,4.56
2023-03-05T11:15:27.793Z,4.59
2023-03-05T11:18:24.451Z,4.56
2023-03-05T11:21:19.587Z,4.59
2023-03-05T11:24:14.888Z,4.57
2023-03-05T11:27:04.244Z,4.57
2023-03-05T11:29:53.884Z,4.56
2023-03-05T11:32:42.833Z,4.60
2023-03-05T11:35:34.380Z,4.67
2023-03-05T11:38:27.962Z,4.65
2023-03-05T11:41:21.884Z,4.72
2023-03-05T11:44:15.810Z,4.69
2023-03-05T11:47:16.070Z,4.74
2023-03-05T11:50:13.550Z,4.81
2023-03-05T11:53:07.408Z,4.84
2023-03-05T11:56:01.004Z,4.84
2023-03-05T11:58:55.880Z,4.78
2023-03-05T12:01:48.940Z,4.96
2023-03-05T12:04:37.811Z,5.01
2023-03-05T12:07:35.822Z,4.99
2023-03-05T12:10:26.046Z,5.00
2023-03-05T12:13:24.985Z,4.99
2023-03-05T12:16:25.805Z,4.90
2023-03-05T12:19:34.874Z,4.86
2023-03-05T12:22:25.734Z,4.89
2023-03-05T12:25:26.204Z,4.85
2023-03-05T12:28:17.170Z,4.84
2023-03-05T12:31:06.956Z,4.85
2023-03-05T12:33:58.035Z,4.87
2023-03-05T12:36:46.692Z,4.78
2023-03-05T12:39:50.076Z,4.72
2023-03-05T12:42:47.976Z,4.70
2023-03-05T12:45:41.426Z,4.65
2023-03-05T12:48:46.126Z,4.67
2023-03-05T12:51:39.319Z,4.63
2023-03-05T12:54:33.186Z,4.64
2023-03-05T12:57:26.462Z,4.64
2023-03-05T13:00:21.662Z,4.59
2023-03-05T13:03:15.924Z,4.59
2023-03-05T13:06:07.150Z,4.55
2023-03-05T13:09:03.151Z,4.57
2023-03-05T13:11:55.566Z,4.54
2023-03-05T13:14:45.928Z,4.57
2023-03-05T13:17:39.550Z,4.58
2023-03-05T13:20:34.325Z,4.60
2023-03-05T13:23:25.182Z,4.61
2023-03-05T13:26:19.119Z,4.68
2023-03-05T13:29:11.388Z,4.76
2023-03-05T13:32:03.841Z,4.75
2023-03-05T13:34:55.496Z,4.73
2023-03-05T13:37:45.270Z,4.67
2023-03-05T13:40:35.237Z,4.65
2023-03-05T13:43:25.661Z,4.65
2023-03-05T13:46:15.049Z,4.62
2023-03-05T13:49:23.620Z,4.66
2023-03-05T13:52:16.833Z,4.69
2023-03-05T13:55:13.133Z,4.76
2023-03-05T13:58:02.706Z,4.81
2023-03-05T14:01:04.543Z,4.79
2023-03-05T14:03:56.456Z,4.73
2023-03-05T14:06:50.538Z,4.68
2023-03-05T14:09:49.994Z,4.56
2023-03-05T14:12:43.029Z,4.64
2023-03-05T14:15:35.351Z,4.52
2023-03-05T14:18:25.340Z,4.55
2023-03-05T14:21:14.554Z,4.63
2023-03-05T14:24:15.394Z,4.63
2023-03-05T14:27:09.133Z,4.61
2023-03-05T14:29:57.845Z,4.63
2023-03-05T14:32:47.619Z,4.58
2023-03-05T14:35:37.856Z,4.55
2023-03-05T14:38:31.538Z,4.51
2023-03-05T14:41:22.793Z,4.38
2023-03-05T14:44:17.121Z,4.42
2023-03-05T14:47:05.791Z,4.38
2023-03-05T14:49:54.959Z,4.35
2023-03-05T14:52:46.170Z,4.41
2023-03-05T14:55:38.228Z,4.40
2023-03-05T14:58:32.188Z,4.31
2023-03-05T15:01:20.825Z,4.28
2023-03-05T15:04:09.853Z,4.23
2023-03-05T15:06:59.570Z,4.27
2023-03-05T15:09:49.819Z,3.95
2023-03-05T15:12:39.070Z,4.29
2023-03-05T15:15:28.303Z,4.32
2023-03-05T15:18:20.002Z,4.35
2023-03-05T15:21:08.622Z,4.38
2023-03-05T15:23:58.052Z,4.38
2023-03-05T15:26:50.138Z,4.36
2023-03-05T15:29:40.245Z,4.34
2023-03-05T15:32:30.580Z,4.33
2023-03-05T15:35:19.411Z,4.34
2023-03-05T15:38:08.173Z,4.32
2023-03-05T15:41:01.271Z,4.30
2023-03-05T15:43:51.746Z,4.33
2023-03-05T15:46:41.757Z,4.29
2023-03-05T15:49:30.829Z,4.25
2023-03-05T15:52:19.910Z,4.28
2023-03-05T15:55:09.829Z,4.22
2023-03-05T15:57:59.498Z,4.19
2023-03-05T16:00:49.593Z,4.20
2023-03-05T16:03:39.937Z,4.22
2023-03-05T16:06:56.952Z,4.26
2023-03-05T16:10:01.963Z,4.10
2023-03-05T16:12:56.877Z,4.19
2023-03-05T16:15:53.225Z,3.90
2023-03-05T16:18:45.882Z,4.23
2023-03-05T16:21:35.778Z,4.22
2023-03-05T16:24:24.920Z,4.23
2023-03-05T16:27:13.730Z,4.21
2023-03-05T16:30:06.307Z,4.27
2023-03-05T16:32:55.984Z,4.18
2023-03-05T16:35:46.126Z,4.26
2023-03-05T16:38:35.529Z,4.27
2023-03-05T16:41:27.230Z,4.23
2023-03-05T16:44:15.987Z,4.30
2023-03-05T16:47:04.929Z,4.31
2023-03-05T16:49:55.323Z,4.27
2023-03-05T16:52:52.360Z,4.22
2023-03-05T16:55:41.788Z,4.33
2023-03-05T16:58:31.007Z,3.70
2023-03-05T17:01:22.009Z,4.22
2023-03-05T17:04:16.810Z,4.34
2023-03-05T17:07:06.514Z,4.28
2023-03-05T17:10:02.685Z,4.32
2023-03-05T17:12:53.216Z,3.62
2023-03-05T17:15:47.991Z,4.29
2023-03-05T17:18:46.641Z,4.31
2023-03-05T17:21:46.461Z,4.04
2023-03-05T17:24:38.574Z,4.00
2023-03-05T17:27:29.593Z,4.21
2023-03-05T17:30:23.234Z,3.82
2023-03-05T17:33:13.033Z,4.24
2023-03-05T17:36:02.888Z,4.23
2023-03-05T17:38:52.439Z,4.13
2023-03-05T17:41:41.579Z,4.06
2023-03-05T17:44:34.139Z,4.21
2023-03-05T17:47:24.065Z,4.23
2023-03-05T17:50:15.456Z,3.93
2023-03-05T17:53:05.254Z,4.24
2023-03-05T17:55:56.396Z,4.16
2023-03-05T17:58:45.520Z,4.23
2023-03-05T18:01:36.668Z,4.21
2023-03-05T18:04:26.421Z,4.04
2023-03-05T18:07:15.135Z,4.19
2023-03-05T18:10:06.883Z,4.20
2023-03-05T18:13:03.768Z,4.20
2023-03-05T18:15:53.353Z,4.21
2023-03-05T18:18:44.265Z,4.09
2023-03-05T18:21:36.187Z,4.09
2023-03-05T18:24:25.314Z,4.19
2023-03-05T18:27:14.099Z,4.22
2023-03-05T18:30:03.833Z,4.21
2023-03-05T18:32:52.731Z,4.14
2023-03-05T18:35:44.233Z,4.16
2023-03-05T18:38:33.916Z,4.18
2023-03-05T18:41:27.655Z,4.14
2023-03-05T18:44:19.746Z,4.14
2023-03-05T18:47:09.280Z,4.10
2023-03-05T18:49:59.433Z,4.10
2023-03-05T18:52:50.066Z,4.08
2023-03-05T18:55:38.773Z,4.08
2023-03-05T18:58:28.233Z,4.07
2023-03-05T19:01:18.135Z,4.10
2023-03-05T19:04:07.759Z,4.03
2023-03-05T19:06:56.786Z,3.99
2023-03-05T19:09:58.967Z,4.03
2023-03-05T19:12:50.986Z,4.06
2023-03-05T19:15:41.791Z,4.09
2023-03-05T19:18:33.724Z,4.09
2023-03-05T19:21:22.923Z,4.10
2023-03-05T19:24:12.510Z,4.12
2023-03-05T19:27:10.125Z,4.13
2023-03-05T19:30:00.100Z,4.01
2023-03-05T19:32:49.686Z,4.14
2023-03-05T19:35:38.852Z,4.12
2023-03-05T19:38:28.057Z,4.12
2023-03-05T19:41:17.991Z,4.10
2023-03-05T19:44:09.300Z,4.09
2023-03-05T19:46:58.008Z,4.14
2023-03-05T19:49:47.961Z,4.13
2023-03-05T19:52:39.173Z,4.06
2023-03-05T19:55:28.158Z,4.13
2023-03-05T19:58:17.465Z,4.10
2023-03-05T20:01:13.784Z,4.16
2023-03-05T20:04:04.103Z,4.08
2023-03-05T20:06:59.198Z,4.17
2023-03-05T20:09:50.648Z,4.13
2023-03-05T20:12:39.394Z,4.13
2023-03-05T20:15:29.731Z,4.13
2023-03-05T20:18:19.901Z,4.10
2023-03-05T20:21:09.930Z,4.10
2023-03-05T20:24:00.656Z,4.10
2023-03-05T20:26:51.453Z,4.00
2023-03-05T20:29:40.184Z,4.06
2023-03-05T20:32:29.872Z,4.07
2023-03-05T20:35:19.973Z,4.08
2023-03-05T20:38:20.803Z,4.04
2023-03-05T20:41:12.212Z,4.06
2023-03-05T20:44:06.327Z,3.99
2023-03-05T20:47:13.051Z,4.04
2023-03-05T20:50:01.931Z,4.00
2023-03-05T20:52:52.807Z,3.98
2023-03-05T20:55:41.649Z,3.95
2023-03-05T20:58:31.269Z,3.94
2023-03-05T21:01:20.286Z,3.92
2023-03-05T21:04:09.342Z,3.83
2023-03-05T21:06:58.134Z,3.90
2023-03-05T21:09:48.614Z,3.90
2023-03-05T21:12:37.249Z,3.88
2023-03-05T21:15:27.829Z,3.87
2023-03-05T21:18:16.438Z,3.86
2023-03-05T21:21:07.384Z,3.79
2023-03-05T21:23:56.061Z,3.72
2023-03-05T21:26:46.944Z,3.79
2023-03-05T21:29:35.613Z,3.79
2023-03-05T21:32:25.091Z,3.81
2023-03-05T21:35:17.988Z,3.80
2023-03-05T21:38:08.930Z,3.65
2023-03-05T21:40:59.693Z,3.55
2023-03-05T21:43:50.480Z,3.54
2023-03-05T21:46:42.702Z,3.48
2023-03-05T21:49:32.338Z,3.42
2023-03-05T21:52:22.462Z,3.49
2023-03-05T21:55:14.216Z,3.58
2023-03-05T21:58:03.812Z,3.62
2023-03-05T22:00:55.350Z,3.65
2023-03-05T22:03:44.092Z,3.66
2023-03-05T22:06:33.136Z,3.67
2023-03-05T22:09:21.740Z,3.67
2023-03-05T22:12:15.513Z,3.67
2023-03-05T22:15:04.494Z,3.68
2023-03-05T22:17:55.893Z,3.68
2023-03-05T22:20:44.949Z,3.66
2023-03-05T22:23:35.501Z,3.70
2023-03-05T22:26:24.992Z,3.69
2023-03-05T22:29:15.277Z,3.69
2023-03-05T22:32:03.959Z,3.71
2023-03-05T22:34:57.948Z,3.58
2023-03-05T22:37:47.938Z,3.73
2023-03-05T22:40:37.469Z,3.47
2023-03-05T22:43:26.566Z,3.69
2023-03-05T22:46:17.330Z,3.70
2023-03-05T22:49:07.617Z,3.69
2023-03-05T22:51:57.693Z,3.69
2023-03-05T22:54:48.045Z,3.65
2023-03-05T22:57:36.738Z,3.64
2023-03-05T23:00:27.156Z,3.56
2023-03-05T23:03:16.548Z,3.55
2023-03-05T23:06:06.340Z,3.39
2023-03-05T23:08:57.600Z,3.62
2023-03-05T23:11:46.193Z,3.64
2023-03-05T23:14:35.253Z,3.67
2023-03-05T23:17:23.936Z,3.70
2023-03-05T23:20:17.129Z,3.71
2023-03-05T23:23:05.815Z,3.72
2023-03-05T23:25:57.267Z,3.73
2023-03-05T23:28:46.313Z,3.74
2023-03-05T23:31:35.254Z,3.72
2023-03-05T23:34:24.324Z,3.67
2023-03-05T23:37:13.178Z,3.71
2023-03-05T23:40:03.947Z,3.69
2023-03-05T23:42:54.413Z,3.70
2023-03-05T23:45:45.267Z,3.68
2023-03-05T23:48:34.849Z,3.68
2023-03-05T23:51:24.066Z,3.68
2023-03-05T23:54:12.702Z,3.68
2023-03-05T23:57:01.956Z,3.67
2023-03-05T23:59:52.410Z,3.65
